createdAt,value
2018-09-29T00:00:38.053Z,36.36
2018-09-29T00:03:04.053Z,37.04
2018-09-29T00:05:29.971Z,37.45
2018-09-29T00:07:55.915Z,37.48
2018-09-29T00:10:22.009Z,37.92
2018-09-29T00:12:47.841Z,37.84
2018-09-29T00:15:13.781Z,37.59
2018-09-29T00:17:39.738Z,37.92
2018-09-29T00:20:05.732Z,37.35
2018-09-29T00:22:31.673Z,38.17
2018-09-29T00:24:57.603Z,38.56
2018-09-29T00:27:23.564Z,37.78
2018-09-29T00:29:49.535Z,38.15
2018-09-29T00:32:15.521Z,37.72
2018-09-29T00:34:41.482Z,38.12
2018-09-29T00:37:07.455Z,38.29
2018-09-29T00:39:33.406Z,38.08
2018-09-29T00:41:59.367Z,38.25
2018-09-29T00:44:25.310Z,38.19
2018-09-29T00:46:51.278Z,38.31
2018-09-29T00:49:17.210Z,38.13
2018-09-29T00:51:43.181Z,38.28
2018-09-29T00:54:09.217Z,38.08
2018-09-29T00:56:35.203Z,38.50
2018-09-29T00:59:01.140Z,38.47
2018-09-29T01:01:27.118Z,38.77
2018-09-29T01:03:53.044Z,38.85
2018-09-29T01:06:19.039Z,38.77
2018-09-29T01:08:44.983Z,38.25
2018-09-29T01:11:10.953Z,38.12
2018-09-29T01:13:36.921Z,39.21
2018-09-29T01:16:02.894Z,39.32
2018-09-29T01:18:28.845Z,39.08
2018-09-29T01:20:54.812Z,39.40
2018-09-29T01:23:20.817Z,39.08
2018-09-29T01:25:46.812Z,39.74
2018-09-29T01:28:12.753Z,39.73
2018-09-29T01:30:38.723Z,39.03
2018-09-29T01:33:04.708Z,40.06
2018-09-29T01:35:30.664Z,39.51
2018-09-29T01:37:56.608Z,39.75
2018-09-29T01:40:22.581Z,39.22
2018-09-29T01:42:48.543Z,39.33
2018-09-29T01:45:14.503Z,39.27
2018-09-29T01:47:40.528Z,39.38
2018-09-29T01:50:06.500Z,39.24
2018-09-29T01:52:32.450Z,39.55
2018-09-29T01:54:58.397Z,39.04
2018-09-29T01:57:24.399Z,38.71
2018-09-29T01:59:50.331Z,39.47
2018-09-29T02:02:16.291Z,39.68
2018-09-29T02:04:42.253Z,40.32
2018-09-29T02:07:08.206Z,40.70
2018-09-29T02:09:34.148Z,40.51
2018-09-29T02:12:00.096Z,40.68
2018-09-29T02:14:26.057Z,41.29
2018-09-29T02:16:52.023Z,40.27
2018-09-29T02:19:17.956Z,40.11
2018-09-29T02:21:43.942Z,40.63
2018-09-29T02:24:09.901Z,40.89
2018-09-29T02:26:35.875Z,40.80
2018-09-29T02:29:01.937Z,40.80
2018-09-29T02:31:27.837Z,40.41
2018-09-29T02:33:53.789Z,40.62
2018-09-29T02:36:19.760Z,40.50
2018-09-29T02:38:45.721Z,40.91
2018-09-29T02:41:11.714Z,40.51
2018-09-29T02:43:37.679Z,40.21
2018-09-29T02:46:03.743Z,39.96
2018-09-29T02:48:29.690Z,40.64
2018-09-29T02:50:55.631Z,40.12
2018-09-29T02:53:21.601Z,40.27
2018-09-29T02:55:47.539Z,40.74
2018-09-29T02:58:13.489Z,40.48
2018-09-29T03:00:39.442Z,40.46
2018-09-29T03:03:05.394Z,40.67
2018-09-29T03:05:31.334Z,41.01
2018-09-29T03:07:57.274Z,40.80
2018-09-29T03:10:23.221Z,41.05
2018-09-29T03:12:49.181Z,41.21
2018-09-29T03:15:15.121Z,41.76
2018-09-29T03:17:41.081Z,41.41
2018-09-29T03:20:07.057Z,41.38
2018-09-29T03:22:32.992Z,41.46
2018-09-29T03:24:58.948Z,41.56
2018-09-29T03:27:24.901Z,40.96
2018-09-29T03:29:50.851Z,41.64
2018-09-29T03:32:16.799Z,41.34
2018-09-29T03:34:42.770Z,41.22
2018-09-29T03:37:08.728Z,40.75
2018-09-29T03:39:34.690Z,41.00
2018-09-29T03:42:00.621Z,40.39
2018-09-29T03:44:26.553Z,40.66
2018-09-29T03:46:52.512Z,41.33
2018-09-29T03:49:18.480Z,41.19
2018-09-29T03:51:44.435Z,41.49
2018-09-29T03:54:10.388Z,42.04
2018-09-29T03:56:36.322Z,41.49
2018-09-29T03:59:02.310Z,41.66
2018-09-29T04:01:28.265Z,41.17
2018-09-29T04:03:54.216Z,41.21
2018-09-29T04:06:20.162Z,41.35
2018-09-29T04:08:46.132Z,41.67
2018-09-29T04:11:12.076Z,41.53
2018-09-29T04:13:38.107Z,41.96
2018-09-29T04:16:04.041Z,42.03
2018-09-29T04:18:30.024Z,41.62
2018-09-29T04:20:56.037Z,41.61
2018-09-29T04:23:22.050Z,41.81
2018-09-29T04:25:47.998Z,41.74
2018-09-29T04:28:13.979Z,41.70
2018-09-29T04:30:39.970Z,41.52
2018-09-29T04:33:05.916Z,41.73
2018-09-29T04:35:31.964Z,41.76
2018-09-29T04:37:57.928Z,41.54
2018-09-29T04:40:23.884Z,41.58
2018-09-29T04:42:49.859Z,42.44
2018-09-29T04:45:15.793Z,42.28
2018-09-29T04:47:41.740Z,42.04
2018-09-29T04:50:07.697Z,41.80
2018-09-29T04:52:33.660Z,41.90
2018-09-29T04:54:59.622Z,41.63
2018-09-29T04:57:25.588Z,41.77
2018-09-29T04:59:51.517Z,41.32
2018-09-29T05:02:17.486Z,41.04
2018-09-29T05:04:43.453Z,41.77
2018-09-29T05:07:09.404Z,42.25
2018-09-29T05:09:35.359Z,41.55
2018-09-29T05:12:01.347Z,41.38
2018-09-29T05:14:27.307Z,41.38
2018-09-29T05:16:53.283Z,41.02
2018-09-29T05:19:19.278Z,41.03
2018-09-29T05:21:45.214Z,40.80
2018-09-29T05:24:11.213Z,40.93
2018-09-29T05:26:37.167Z,40.92
2018-09-29T05:29:03.140Z,40.98
2018-09-29T05:31:29.089Z,40.67
2018-09-29T05:33:55.061Z,40.76
2018-09-29T05:36:21.024Z,41.01
2018-09-29T05:38:46.998Z,41.29
2018-09-29T05:41:12.937Z,41.65
2018-09-29T05:43:38.907Z,41.79
2018-09-29T05:46:04.848Z,41.85
2018-09-29T05:48:30.814Z,41.16
2018-09-29T05:50:56.785Z,41.16
2018-09-29T05:53:22.737Z,40.82
2018-09-29T05:55:48.698Z,40.64
2018-09-29T05:58:14.760Z,40.74
2018-09-29T06:00:40.813Z,40.27
2018-09-29T06:03:06.669Z,40.32
2018-09-29T06:05:32.687Z,40.48
2018-09-29T06:07:58.607Z,40.45
2018-09-29T06:10:24.567Z,39.79
2018-09-29T06:12:50.517Z,40.15
2018-09-29T06:15:16.459Z,39.37
2018-09-29T06:17:42.403Z,39.10
2018-09-29T06:20:08.361Z,38.68
2018-09-29T06:22:34.349Z,38.37
2018-09-29T06:25:00.293Z,38.69
2018-09-29T06:27:26.266Z,38.28
2018-09-29T06:29:52.192Z,37.46
2018-09-29T06:32:18.142Z,37.90
2018-09-29T06:34:44.081Z,37.76
2018-09-29T06:37:10.022Z,37.58
2018-09-29T06:39:35.971Z,37.02
2018-09-29T06:42:01.919Z,36.83
2018-09-29T06:44:27.880Z,36.70
2018-09-29T06:46:53.862Z,36.06
2018-09-29T06:49:19.825Z,36.11
2018-09-29T06:51:45.766Z,35.61
2018-09-29T06:54:11.778Z,35.36
2018-09-29T06:56:37.723Z,35.73
2018-09-29T06:59:03.656Z,34.73
2018-09-29T07:01:29.626Z,35.40
2018-09-29T07:03:55.584Z,34.34
2018-09-29T07:06:21.537Z,35.12
2018-09-29T07:08:47.473Z,34.84
2018-09-29T07:11:13.411Z,34.92
2018-09-29T07:13:39.356Z,34.29
2018-09-29T07:16:05.332Z,34.12
2018-09-29T07:18:32.280Z,34.70
2018-09-29T07:20:58.330Z,34.27
2018-09-29T07:23:24.351Z,34.28
2018-09-29T07:25:50.318Z,33.89
2018-09-29T07:28:16.284Z,34.07
2018-09-29T07:30:42.290Z,33.04
2018-09-29T07:33:08.382Z,33.28
2018-09-29T07:35:34.336Z,33.29
2018-09-29T07:38:00.283Z,32.07
2018-09-29T07:40:28.322Z,33.05
2018-09-29T07:42:54.267Z,32.96
2018-09-29T07:45:20.324Z,32.18
2018-09-29T07:47:46.262Z,32.53
2018-09-29T07:50:12.215Z,32.88
2018-09-29T07:52:38.176Z,32.06
2018-09-29T07:55:04.157Z,32.75
2018-09-29T07:57:30.133Z,31.88
2018-09-29T07:59:56.097Z,33.11
2018-09-29T08:02:22.052Z,32.17
2018-09-29T08:04:48.105Z,32.67
2018-09-29T08:07:14.064Z,32.50
2018-09-29T08:09:40.019Z,32.80
2018-09-29T08:12:05.945Z,32.36
2018-09-29T08:14:31.926Z,33.08
2018-09-29T08:16:57.877Z,32.36
2018-09-29T08:19:23.832Z,32.95
2018-09-29T08:21:49.802Z,33.17
2018-09-29T08:24:15.993Z,32.44
2018-09-29T08:26:41.998Z,32.99
2018-09-29T08:29:07.949Z,33.91
2018-09-29T08:31:33.892Z,33.29
2018-09-29T08:33:59.876Z,32.26
2018-09-29T08:36:25.845Z,33.13
2018-09-29T08:38:51.821Z,32.59
2018-09-29T08:41:17.793Z,33.54
2018-09-29T08:43:43.860Z,33.77
2018-09-29T08:46:09.807Z,34.34
2018-09-29T08:48:35.796Z,34.47
2018-09-29T08:51:01.851Z,34.47
2018-09-29T08:53:27.874Z,34.24
2018-09-29T08:55:54.907Z,33.65
2018-09-29T08:58:20.890Z,33.83
2018-09-29T09:00:46.907Z,34.37
2018-09-29T09:03:12.934Z,33.42
2018-09-29T09:05:38.924Z,33.29
2018-09-29T09:08:04.964Z,32.43
2018-09-29T09:10:31.062Z,33.48
2018-09-29T09:12:57.057Z,34.03
2018-09-29T09:15:23.033Z,31.88
2018-09-29T09:17:48.993Z,31.83
2018-09-29T09:20:14.954Z,33.02
2018-09-29T09:22:41.005Z,32.85
2018-09-29T09:25:07.006Z,33.04
2018-09-29T09:27:33.011Z,33.11
2018-09-29T09:29:59.090Z,32.83
2018-09-29T09:32:30.402Z,32.87
2018-09-29T09:34:56.407Z,32.07
2018-09-29T09:37:22.352Z,33.24
2018-09-29T09:39:48.398Z,33.71
2018-09-29T09:42:14.392Z,33.41
2018-09-29T09:44:40.380Z,33.29
2018-09-29T09:47:06.417Z,33.58
2018-09-29T09:49:32.458Z,32.85
2018-09-29T09:51:58.411Z,32.60
2018-09-29T09:54:24.398Z,32.26
2018-09-29T09:56:50.382Z,32.66
2018-09-29T09:59:16.323Z,33.41
2018-09-29T10:01:42.287Z,33.25
2018-09-29T10:04:08.336Z,32.84
2018-09-29T10:06:34.350Z,32.11
2018-09-29T10:09:00.317Z,31.83
2018-09-29T10:11:26.414Z,31.75
2018-09-29T10:13:52.435Z,31.56
2018-09-29T10:16:18.408Z,32.09
2018-09-29T10:18:44.354Z,32.28
2018-09-29T10:21:10.350Z,33.46
2018-09-29T10:23:36.414Z,33.25
2018-09-29T10:26:02.421Z,35.52
2018-09-29T10:28:28.418Z,33.71
2018-09-29T10:30:54.464Z,32.61
2018-09-29T10:33:20.425Z,32.42
2018-09-29T10:35:46.409Z,31.89
2018-09-29T10:38:12.445Z,31.82
2018-09-29T10:40:38.490Z,30.94
2018-09-29T10:43:05.496Z,30.86
2018-09-29T10:45:31.556Z,31.59
2018-09-29T10:47:57.565Z,30.80
2018-09-29T10:50:23.569Z,30.67
2018-09-29T10:52:49.547Z,30.54
2018-09-29T10:55:15.526Z,31.68
2018-09-29T10:57:41.486Z,31.38
2018-09-29T11:00:07.434Z,32.20
2018-09-29T11:02:33.471Z,30.52
2018-09-29T11:04:59.473Z,30.41
2018-09-29T11:07:25.389Z,29.75
2018-09-29T11:09:51.374Z,29.21
2018-09-29T11:12:17.359Z,31.72
2018-09-29T11:14:43.345Z,32.42
2018-09-29T11:17:09.352Z,32.60
2018-09-29T11:19:35.312Z,32.73
2018-09-29T11:22:01.307Z,30.94
2018-09-29T11:24:28.309Z,31.92
2018-09-29T11:26:55.465Z,30.67
2018-09-29T11:29:22.518Z,30.23
2018-09-29T11:31:48.486Z,29.89
2018-09-29T11:34:14.674Z,28.98
2018-09-29T11:36:40.924Z,29.89
2018-09-29T11:39:07.170Z,29.21
2018-09-29T11:41:33.387Z,30.48
2018-09-29T11:43:59.576Z,29.39
2018-09-29T11:46:25.845Z,29.51
2018-09-29T11:48:52.081Z,28.36
2018-09-29T11:51:18.328Z,28.18
2018-09-29T11:53:44.619Z,28.36
2018-09-29T11:56:10.848Z,28.16
2018-09-29T11:58:37.133Z,27.61
2018-09-29T12:01:03.361Z,28.54
2018-09-29T12:03:29.627Z,27.79
2018-09-29T12:05:55.931Z,28.12
2018-09-29T12:08:22.319Z,27.80
2018-09-29T12:10:48.585Z,28.14
2018-09-29T12:13:14.838Z,28.10
2018-09-29T12:15:41.101Z,29.72
2018-09-29T12:18:07.311Z,30.61
2018-09-29T12:20:33.629Z,29.55
2018-09-29T12:22:59.892Z,29.51
2018-09-29T12:25:26.258Z,29.36
2018-09-29T12:27:52.496Z,28.82
2018-09-29T12:30:18.712Z,29.17
2018-09-29T12:32:44.993Z,28.77
2018-09-29T12:35:10.999Z,29.59
2018-09-29T12:37:37.147Z,29.39
2018-09-29T12:40:03.033Z,29.63
2018-09-29T12:42:29.024Z,30.29
2018-09-29T12:44:55.059Z,29.99
2018-09-29T12:47:20.917Z,28.95
2018-09-29T12:49:46.879Z,29.86
2018-09-29T12:52:12.857Z,27.63
2018-09-29T12:54:38.843Z,29.37
2018-09-29T12:57:04.780Z,29.34
2018-09-29T12:59:30.768Z,28.23
2018-09-29T13:01:56.715Z,29.22
2018-09-29T13:04:23.773Z,30.30
2018-09-29T13:06:49.735Z,30.00
2018-09-29T13:09:15.743Z,30.06
2018-09-29T13:11:41.698Z,28.40
2018-09-29T13:14:07.694Z,28.11
2018-09-29T13:16:33.647Z,28.08
2018-09-29T13:18:59.624Z,28.41
2018-09-29T13:21:25.626Z,28.90
2018-09-29T13:23:51.625Z,28.74
2018-09-29T13:26:17.582Z,29.23
2018-09-29T13:28:43.620Z,27.81
2018-09-29T13:31:09.571Z,28.37
2018-09-29T13:33:35.567Z,27.99
2018-09-29T13:36:01.540Z,26.93
2018-09-29T13:38:27.529Z,26.47
2018-09-29T13:40:53.497Z,26.84
2018-09-29T13:43:19.537Z,27.99
2018-09-29T13:45:45.516Z,28.85
2018-09-29T13:48:11.492Z,28.53
2018-09-29T13:50:37.451Z,28.11
2018-09-29T13:53:03.437Z,28.03
2018-09-29T13:55:29.399Z,28.36
2018-09-29T13:57:56.407Z,26.77
2018-09-29T14:00:22.375Z,28.17
2018-09-29T14:02:48.372Z,27.93
2018-09-29T14:05:16.361Z,27.96
2018-09-29T14:07:42.316Z,28.33
2018-09-29T14:10:08.305Z,29.29
2018-09-29T14:12:34.287Z,26.72
2018-09-29T14:15:00.255Z,26.62
2018-09-29T14:17:26.286Z,27.75
2018-09-29T14:19:52.347Z,26.24
2018-09-29T14:22:20.377Z,25.17
2018-09-29T14:24:46.379Z,25.93
2018-09-29T14:27:12.357Z,25.53
2018-09-29T14:29:38.319Z,26.32
2018-09-29T14:32:04.271Z,25.81
2018-09-29T14:34:30.228Z,27.13
2018-09-29T14:36:59.272Z,27.12
2018-09-29T14:39:25.227Z,27.39
2018-09-29T14:41:51.215Z,26.74
2018-09-29T14:44:21.560Z,27.06
2018-09-29T14:46:47.589Z,26.72
2018-09-29T14:49:13.602Z,28.33
2018-09-29T14:51:39.542Z,27.98
2018-09-29T14:54:05.551Z,27.14
2018-09-29T14:56:31.515Z,26.65
2018-09-29T14:58:57.473Z,27.00
2018-09-29T15:01:23.488Z,26.28
2018-09-29T15:03:49.456Z,26.21
2018-09-29T15:06:15.416Z,26.12
2018-09-29T15:08:41.408Z,25.46
2018-09-29T15:11:07.496Z,27.58
2018-09-29T15:13:33.496Z,26.68
2018-09-29T15:15:59.461Z,26.39
2018-09-29T15:18:25.443Z,27.02
2018-09-29T15:20:51.380Z,27.59
2018-09-29T15:23:17.401Z,27.30
2018-09-29T15:25:43.354Z,27.57
2018-09-29T15:28:09.345Z,27.48
2018-09-29T15:30:35.305Z,26.62
2018-09-29T15:33:01.263Z,26.51
2018-09-29T15:35:27.219Z,26.37
2018-09-29T15:37:53.170Z,27.43
2018-09-29T15:40:19.199Z,26.49
2018-09-29T15:42:45.290Z,26.75
2018-09-29T15:45:11.183Z,25.71
2018-09-29T15:47:37.136Z,26.99
2018-09-29T15:50:03.140Z,26.97
2018-09-29T15:52:29.102Z,27.50
2018-09-29T15:54:55.073Z,28.81
2018-09-29T15:57:21.061Z,29.43
2018-09-29T15:59:47.049Z,27.41
2018-09-29T16:02:13.089Z,28.20
2018-09-29T16:04:39.025Z,27.34
2018-09-29T16:07:04.961Z,26.56
2018-09-29T16:09:30.941Z,26.40
2018-09-29T16:11:56.883Z,27.02
2018-09-29T16:14:23.917Z,26.95
2018-09-29T16:16:49.898Z,27.56
2018-09-29T16:19:15.860Z,27.61
2018-09-29T16:21:41.839Z,27.60
2018-09-29T16:24:07.792Z,28.00
2018-09-29T16:26:33.809Z,27.96
2018-09-29T16:28:59.774Z,28.39
2018-09-29T16:31:25.708Z,28.65
2018-09-29T16:33:51.643Z,29.70
2018-09-29T16:36:17.668Z,29.19
2018-09-29T16:38:43.636Z,30.12
2018-09-29T16:41:09.598Z,30.44
2018-09-29T16:43:36.678Z,30.97
2018-09-29T16:46:02.653Z,30.86
2018-09-29T16:48:28.629Z,31.33
2018-09-29T16:50:54.597Z,31.13
2018-09-29T16:53:20.604Z,31.57
2018-09-29T16:55:46.608Z,32.26
2018-09-29T16:58:12.600Z,31.06
2018-09-29T17:00:38.617Z,31.42
2018-09-29T17:03:04.578Z,31.00
2018-09-29T17:05:30.557Z,31.10
2018-09-29T17:07:56.537Z,31.71
2018-09-29T17:10:22.581Z,31.09
2018-09-29T17:12:48.594Z,31.37
2018-09-29T17:15:14.582Z,31.24
2018-09-29T17:17:40.574Z,31.20
2018-09-29T17:20:06.548Z,31.67
2018-09-29T17:22:32.517Z,31.69
2018-09-29T17:24:58.504Z,31.75
2018-09-29T17:27:24.472Z,31.88
2018-09-29T17:29:50.451Z,32.64
2018-09-29T17:32:16.418Z,32.58
2018-09-29T17:34:42.432Z,32.54
2018-09-29T17:37:08.398Z,31.89
2018-09-29T17:39:34.368Z,32.18
2018-09-29T17:42:00.355Z,32.26
2018-09-29T17:44:26.357Z,32.14
2018-09-29T17:46:52.332Z,33.01
2018-09-29T17:49:18.318Z,32.83
2018-09-29T17:51:44.259Z,33.37
2018-09-29T17:54:10.433Z,33.50
2018-09-29T17:56:36.420Z,33.27
2018-09-29T17:59:02.408Z,33.15
2018-09-29T18:01:28.354Z,33.33
2018-09-29T18:03:54.353Z,32.76
2018-09-29T18:06:20.409Z,33.41
2018-09-29T18:08:46.385Z,32.92
2018-09-29T18:11:12.370Z,32.85
2018-09-29T18:13:38.489Z,32.68
2018-09-29T18:16:04.386Z,33.03
2018-09-29T18:18:30.341Z,32.90
2018-09-29T18:20:56.399Z,33.21
2018-09-29T18:23:22.365Z,32.86
2018-09-29T18:25:48.364Z,33.03
2018-09-29T18:28:14.442Z,33.59
2018-09-29T18:30:40.462Z,33.54
2018-09-29T18:33:06.417Z,33.14
2018-09-29T18:35:32.398Z,34.31
2018-09-29T18:37:58.417Z,33.98
2018-09-29T18:40:24.397Z,34.91
2018-09-29T18:42:50.376Z,34.77
2018-09-29T18:45:16.361Z,34.51
2018-09-29T18:47:42.397Z,35.01
2018-09-29T18:50:08.465Z,34.94
2018-09-29T18:52:34.459Z,34.67
2018-09-29T18:55:00.457Z,34.87
2018-09-29T18:57:26.488Z,34.33
2018-09-29T18:59:52.494Z,34.75
2018-09-29T19:02:18.488Z,34.73
2018-09-29T19:04:44.518Z,34.50
2018-09-29T19:07:10.469Z,34.02
2018-09-29T19:09:36.438Z,34.61
2018-09-29T19:12:02.564Z,34.55
2018-09-29T19:14:28.470Z,34.71
2018-09-29T19:16:54.483Z,34.27
2018-09-29T19:19:20.442Z,34.14
2018-09-29T19:21:46.459Z,34.75
2018-09-29T19:24:12.482Z,34.21
2018-09-29T19:26:38.447Z,34.66
2018-09-29T19:29:04.399Z,34.75
2018-09-29T19:31:30.378Z,34.77
2018-09-29T19:33:56.439Z,34.84
2018-09-29T19:36:22.506Z,34.99
2018-09-29T19:38:48.725Z,34.70
2018-09-29T19:41:14.731Z,35.04
2018-09-29T19:43:40.813Z,34.99
2018-09-29T19:46:06.779Z,35.53
2018-09-29T19:48:32.768Z,36.07
2018-09-29T19:50:58.765Z,36.30
2018-09-29T19:53:24.732Z,35.88
2018-09-29T19:55:50.759Z,35.66
2018-09-29T19:58:16.805Z,36.18
2018-09-29T20:00:42.774Z,35.99
2018-09-29T20:03:08.808Z,36.91
2018-09-29T20:05:34.793Z,36.38
2018-09-29T20:08:00.772Z,36.50
2018-09-29T20:10:26.752Z,35.84
2018-09-29T20:12:52.743Z,35.77
2018-09-29T20:15:18.685Z,36.28
2018-09-29T20:17:44.672Z,36.26
2018-09-29T20:20:10.656Z,35.90
2018-09-29T20:22:36.644Z,36.26
2018-09-29T20:25:02.626Z,36.63
2018-09-29T20:27:28.641Z,36.66
2018-09-29T20:29:54.579Z,37.04
2018-09-29T20:32:20.541Z,36.69
2018-09-29T20:34:46.497Z,37.18
2018-09-29T20:37:12.452Z,36.48
2018-09-29T20:39:38.412Z,36.98
2018-09-29T20:42:05.473Z,37.66
2018-09-29T20:44:31.425Z,37.76
2018-09-29T20:46:57.506Z,37.15
2018-09-29T20:49:23.467Z,37.24
2018-09-29T20:51:49.440Z,37.41
2018-09-29T20:54:15.399Z,37.35
2018-09-29T20:56:41.341Z,37.59
2018-09-29T20:59:07.280Z,37.33
2018-09-29T21:01:33.311Z,37.22
2018-09-29T21:03:59.203Z,38.03
2018-09-29T21:06:25.157Z,37.89
2018-09-29T21:08:51.120Z,37.41
2018-09-29T21:11:17.066Z,38.25
2018-09-29T21:13:43.075Z,37.76
2018-09-29T21:16:08.995Z,38.41
2018-09-29T21:18:34.961Z,38.61
2018-09-29T21:21:00.921Z,39.22
2018-09-29T21:23:26.889Z,39.23
2018-09-29T21:25:52.890Z,39.64
2018-09-29T21:28:18.865Z,39.51
2018-09-29T21:30:44.809Z,39.96
2018-09-29T21:33:10.766Z,39.00
2018-09-29T21:35:36.708Z,39.27
2018-09-29T21:38:02.654Z,40.00
2018-09-29T21:40:28.609Z,40.29
2018-09-29T21:42:54.557Z,39.90
2018-09-29T21:45:21.462Z,40.69
2018-09-29T21:47:47.418Z,40.25
2018-09-29T21:50:13.385Z,40.56
2018-09-29T21:52:39.330Z,40.11
2018-09-29T21:55:05.290Z,39.69
2018-09-29T21:57:31.216Z,40.55
2018-09-29T21:59:57.165Z,40.47
2018-09-29T22:02:23.139Z,40.22
2018-09-29T22:04:49.095Z,40.66
2018-09-29T22:07:16.085Z,40.31
2018-09-29T22:09:42.060Z,40.61
2018-09-29T22:12:08.054Z,40.48
2018-09-29T22:14:34.006Z,41.10
2018-09-29T22:16:59.980Z,40.98
2018-09-29T22:19:25.936Z,40.54
2018-09-29T22:21:51.875Z,40.88
2018-09-29T22:24:17.816Z,40.87
2018-09-29T22:26:43.787Z,40.60
2018-09-29T22:29:09.771Z,40.66
2018-09-29T22:31:35.798Z,40.19
2018-09-29T22:34:01.734Z,40.42
2018-09-29T22:36:27.668Z,40.60
2018-09-29T22:38:53.622Z,40.00
2018-09-29T22:41:19.568Z,40.89
2018-09-29T22:43:45.528Z,40.38
2018-09-29T22:46:11.482Z,41.41
2018-09-29T22:48:37.431Z,41.11
2018-09-29T22:51:03.449Z,40.82
2018-09-29T22:53:29.411Z,40.80
2018-09-29T22:55:55.392Z,41.18
2018-09-29T22:58:21.358Z,41.00
2018-09-29T23:00:47.351Z,41.28
2018-09-29T23:03:13.325Z,41.34
2018-09-29T23:05:39.295Z,40.49
2018-09-29T23:08:05.256Z,40.89
2018-09-29T23:10:31.244Z,40.82
2018-09-29T23:12:57.205Z,40.77
2018-09-29T23:15:23.196Z,41.41
2018-09-29T23:17:49.158Z,40.62
2018-09-29T23:20:15.121Z,41.27
2018-09-29T23:22:41.077Z,41.13
2018-09-29T23:25:07.057Z,40.87
2018-09-29T23:27:32.991Z,41.05
2018-09-29T23:29:58.952Z,40.76
2018-09-29T23:32:24.924Z,41.12
2018-09-29T23:34:50.883Z,41.20
2018-09-29T23:37:16.838Z,40.79
2018-09-29T23:39:42.828Z,40.76
2018-09-29T23:42:08.800Z,40.26
2018-09-29T23:44:34.764Z,40.21
2018-09-29T23:47:00.706Z,41.14
2018-09-29T23:49:26.701Z,41.69
2018-09-29T23:51:52.681Z,40.62
2018-09-29T23:54:18.658Z,40.77
2018-09-29T23:56:44.615Z,40.29
2018-09-29T23:59:10.565Z,40.84
